Time;durP1;ratioP1;P1;durP2;ratioP2;P2;SDS_P1;SDS_P2;PMS_P1;PMS_P2;Temp;Humidity;BMP_temperature;BMP_pressure;BME280_temperature;BME280_humidity;BME280_pressure;Samples;Min_cycle;Max_cycle;Signal;HPM_P1;HPM_P2
2023/11/22 00:01:25;;;;;;;4.00;3.60;;;16.10;64.00;;;;;;5083149;28;20469;-77
2023/11/22 00:03:53;;;;;;;6.70;3.40;;;16.00;63.90;;;;;;5090785;28;20432;-77
2023/11/22 00:06:22;;;;;;;5.83;3.80;;;16.00;64.10;;;;;;5090306;28;20482;-77
2023/11/22 00:08:50;;;;;;;3.97;3.67;;;16.00;64.10;;;;;;5091451;28;20444;-77
2023/11/22 00:11:19;;;;;;;3.60;3.30;;;16.00;64.10;;;;;;5076540;28;20462;-76
2023/11/22 00:13:48;;;;;;;4.90;4.00;;;16.00;64.10;;;;;;5082876;28;20960;-76
2023/11/22 00:16:16;;;;;;;3.23;3.03;;;16.00;63.80;;;;;;5089376;28;20496;-77
2023/11/22 00:18:44;;;;;;;9.03;3.33;;;16.00;63.80;;;;;;5093721;28;20440;-77
2023/11/22 00:21:12;;;;;;;4.43;4.00;;;16.00;64.00;;;;;;5094619;28;20464;-77
2023/11/22 00:23:42;;;;;;;4.03;3.30;;;16.00;63.90;;;;;;5090471;28;20509;-76
2023/11/22 00:26:11;;;;;;;8.73;4.03;;;16.00;63.90;;;;;;5093403;28;20428;-77
2023/11/22 00:28:39;;;;;;;5.10;4.00;;;15.90;63.30;;;;;;5088441;28;20502;-76
2023/11/22 00:31:06;;;;;;;5.70;4.10;;;15.90;63.80;;;;;;5086378;28;20441;-77
2023/11/22 00:33:34;;;;;;;4.40;3.73;;;15.90;63.60;;;;;;5091514;28;20444;-77
2023/11/22 00:36:04;;;;;;;3.90;3.60;;;15.90;63.30;;;;;;5083694;28;20499;-76
2023/11/22 00:38:35;;;;;;;3.70;3.40;;;15.80;63.50;;;;;;5093835;28;20468;-77
2023/11/22 00:41:05;;;;;;;4.50;4.10;;;15.80;63.60;;;;;;5092916;28;20441;-77
2023/11/22 00:43:33;;;;;;;8.43;4.03;;;15.80;63.50;;;;;;5086746;28;20448;-77
2023/11/22 00:46:01;;;;;;;3.97;3.67;;;15.80;63.40;;;;;;5092091;28;20444;-77
2023/11/22 00:48:29;;;;;;;5.47;4.03;;;15.80;63.30;;;;;;5083540;28;20924;-77
2023/11/22 00:50:57;;;;;;;4.70;4.20;;;15.80;63.40;;;;;;5093387;28;20970;-77
2023/11/22 00:53:25;;;;;;;3.80;3.50;;;15.80;63.20;;;;;;5096493;28;20467;-77
2023/11/22 00:55:53;;;;;;;5.40;4.40;;;15.70;62.80;;;;;;5091681;28;20437;-77
2023/11/22 00:58:23;;;;;;;4.70;4.20;;;15.70;63.10;;;;;;5091878;28;20447;-77
2023/11/22 01:00:51;;;;;;;4.03;3.73;;;15.70;62.80;;;;;;5084103;28;20464;-76
2023/11/22 01:03:19;;;;;;;5.23;4.20;;;15.70;62.50;;;;;;5087665;28;20453;-76
2023/11/22 01:05:47;;;;;;;5.20;4.00;;;15.70;62.80;;;;;;5083680;28;20448;-77
2023/11/22 01:08:15;;;;;;;3.60;3.30;;;15.60;62.50;;;;;;5086787;28;20485;-77
2023/11/22 01:10:44;;;;;;;5.33;4.40;;;15.60;62.90;;;;;;5089194;28;20445;-77
2023/11/22 01:13:12;;;;;;;4.93;4.10;;;15.60;62.40;;;;;;5092267;28;20445;-76
2023/11/22 01:15:41;;;;;;;5.80;3.93;;;15.60;62.60;;;;;;5084794;28;20502;-77
2023/11/22 01:18:09;;;;;;;6.10;4.40;;;15.60;62.80;;;;;;5085126;28;20525;-76
2023/11/22 01:20:37;;;;;;;5.57;4.20;;;15.60;62.50;;;;;;5092135;28;20453;-76
2023/11/22 01:23:06;;;;;;;10.63;4.60;;;15.60;62.40;;;;;;5088442;28;20521;-76
2023/11/22 01:25:34;;;;;;;4.80;4.30;;;15.50;62.30;;;;;;5081238;28;20457;-76
2023/11/22 01:28:02;;;;;;;4.13;3.73;;;15.50;62.50;;;;;;5083057;28;20428;-76
2023/11/22 01:30:29;;;;;;;5.50;4.67;;;15.50;62.50;;;;;;5083491;28;20441;-77
2023/11/22 01:32:59;;;;;;;7.67;4.30;;;15.50;62.50;;;;;;5091135;28;20518;-77
2023/11/22 01:35:27;;;;;;;5.30;4.30;;;15.50;62.30;;;;;;5079461;28;20452;-77
2023/11/22 01:37:56;;;;;;;6.10;4.50;;;15.50;62.20;;;;;;5086745;28;20575;-76
2023/11/22 01:40:25;;;;;;;6.47;4.40;;;15.50;62.50;;;;;;5088880;28;20498;-76
2023/11/22 01:42:54;;;;;;;4.83;4.33;;;15.50;62.30;;;;;;5091553;28;20465;-76
2023/11/22 01:45:22;;;;;;;4.37;3.97;;;15.40;61.90;;;;;;5086659;28;20444;-76
2023/11/22 01:47:50;;;;;;;7.53;4.30;;;15.40;62.40;;;;;;5090853;28;20433;-76
2023/11/22 01:50:20;;;;;;;6.80;4.30;;;15.40;62.30;;;;;;5081849;28;20502;-77
2023/11/22 01:52:48;;;;;;;7.43;4.67;;;15.40;62.30;;;;;;5080927;28;20486;-77
2023/11/22 01:55:16;;;;;;;4.33;3.93;;;15.40;62.00;;;;;;5091748;28;20437;-77
2023/11/22 01:57:45;;;;;;;4.67;4.10;;;15.40;62.30;;;;;;5091526;28;20488;-78
2023/11/22 02:00:14;;;;;;;6.40;4.77;;;15.40;61.70;;;;;;5076737;28;20498;-77
2023/11/22 02:02:44;;;;;;;6.20;4.50;;;15.40;61.90;;;;;;5084513;28;20457;-76
2023/11/22 02:05:12;;;;;;;5.67;4.60;;;15.40;62.10;;;;;;5083861;28;20536;-77
2023/11/22 02:07:41;;;;;;;6.67;4.30;;;15.30;61.60;;;;;;5088327;28;20477;-76
2023/11/22 02:10:09;;;;;;;4.20;3.80;;;15.30;62.10;;;;;;5087623;28;20452;-76
2023/11/22 02:12:37;;;;;;;6.40;4.20;;;15.30;62.00;;;;;;5091147;28;20472;-76
2023/11/22 02:15:06;;;;;;;4.67;3.93;;;15.30;61.90;;;;;;5081887;28;20446;-76
2023/11/22 02:17:35;;;;;;;4.77;4.27;;;15.30;61.80;;;;;;5087456;28;20465;-77
2023/11/22 02:20:06;;;;;;;5.20;4.67;;;15.30;61.90;;;;;;5086022;28;20448;-77
2023/11/22 02:22:34;;;;;;;6.00;4.53;;;15.30;61.60;;;;;;5091005;28;20472;-77
2023/11/22 02:25:06;;;;;;;5.63;4.70;;;15.20;61.80;;;;;;5083911;28;20556;-76
2023/11/22 02:27:34;;;;;;;4.40;4.00;;;15.20;61.70;;;;;;5088338;28;20498;-76
2023/11/22 02:30:05;;;;;;;5.50;5.00;;;15.20;61.70;;;;;;5083331;28;20468;-76
2023/11/22 02:32:33;;;;;;;7.17;4.77;;;15.20;61.40;;;;;;5086345;28;20464;-76
2023/11/22 02:35:01;;;;;;;7.50;4.50;;;15.20;61.80;;;;;;5082975;28;20502;-76
2023/11/22 02:37:29;;;;;;;7.23;4.57;;;15.20;61.60;;;;;;5088672;28;20475;-77
2023/11/22 02:39:59;;;;;;;6.20;5.60;;;15.20;61.90;;;;;;5084487;28;20441;-76
2023/11/22 02:42:28;;;;;;;5.83;5.23;;;15.20;61.50;;;;;;5083756;28;20979;-76
2023/11/22 02:44:57;;;;;;;6.73;5.20;;;15.20;61.40;;;;;;5088340;28;20458;-76
2023/11/22 02:47:25;;;;;;;9.50;5.97;;;15.10;61.40;;;;;;5083629;28;20470;-76
2023/11/22 02:49:54;;;;;;;7.70;5.50;;;15.10;61.50;;;;;;5088260;28;20472;-77
2023/11/22 02:52:24;;;;;;;6.63;5.40;;;15.10;61.70;;;;;;5080095;28;21023;-78
2023/11/22 02:54:52;;;;;;;7.13;5.67;;;15.20;61.60;;;;;;5090477;28;20480;-77
2023/11/22 02:57:20;;;;;;;11.53;6.07;;;15.10;61.30;;;;;;5085865;28;20473;-76
2023/11/22 02:59:50;;;;;;;7.07;5.30;;;15.10;61.40;;;;;;5083930;28;20511;-77
2023/11/22 03:02:17;;;;;;;8.27;5.17;;;15.10;61.00;;;;;;5084767;28;20487;-76
2023/11/22 03:04:46;;;;;;;5.23;4.73;;;15.00;61.40;;;;;;5083280;28;20484;-76
2023/11/22 03:07:14;;;;;;;6.47;5.60;;;15.10;61.20;;;;;;5093800;28;20489;-77
2023/11/22 03:09:44;;;;;;;8.37;6.10;;;15.00;61.00;;;;;;5088330;28;20425;-76
2023/11/22 03:12:13;;;;;;;7.17;5.33;;;15.00;61.20;;;;;;5090531;28;20503;-76
2023/11/22 03:14:41;;;;;;;5.97;4.97;;;15.00;61.20;;;;;;5091260;28;20974;-76
2023/11/22 03:17:13;;;;;;;6.60;5.57;;;15.00;61.10;;;;;;5093399;28;20425;-76
2023/11/22 03:19:41;;;;;;;7.33;5.47;;;15.00;61.10;;;;;;5096368;28;20444;-76
2023/11/22 03:22:08;;;;;;;6.50;5.47;;;15.00;61.30;;;;;;5095720;28;20456;-76
2023/11/22 03:24:37;;;;;;;11.90;8.40;;;15.00;60.60;;;;;;5084864;28;20556;-76
2023/11/22 03:27:06;;;;;;;19.17;11.37;;;14.90;60.90;;;;;;5093349;28;20529;-77
2023/11/22 03:29:34;;;;;;;15.50;9.97;;;14.90;61.10;;;;;;5096362;28;20433;-77
2023/11/22 03:32:02;;;;;;;20.40;10.70;;;14.90;61.30;;;;;;5095664;28;20449;-77
2023/11/22 03:34:32;;;;;;;19.10;11.50;;;14.90;61.10;;;;;;5095730;28;20486;-77
2023/11/22 03:37:00;;;;;;;23.87;13.80;;;14.90;61.20;;;;;;5091732;28;20444;-77
2023/11/22 03:39:27;;;;;;;24.50;12.73;;;14.90;60.90;;;;;;5085964;28;20480;-77
2023/11/22 03:41:55;;;;;;;21.10;12.70;;;14.90;60.80;;;;;;5078276;28;20481;-77
2023/11/22 03:44:23;;;;;;;25.00;14.33;;;14.80;60.90;;;;;;5087028;28;20467;-78
2023/11/22 03:46:52;;;;;;;23.80;14.47;;;14.80;61.00;;;;;;5095116;28;20478;-77
2023/11/22 03:49:20;;;;;;;22.10;13.30;;;14.80;61.20;;;;;;5095630;28;20436;-78
2023/11/22 03:51:49;;;;;;;26.00;14.60;;;14.80;60.70;;;;;;5095072;28;20524;-77
2023/11/22 03:54:17;;;;;;;26.77;14.73;;;14.80;61.10;;;;;;5094082;28;20453;-77
2023/11/22 03:56:46;;;;;;;25.37;13.47;;;14.80;60.80;;;;;;5095834;28;20527;-77
2023/11/22 03:59:14;;;;;;;27.50;15.20;;;14.80;60.90;;;;;;5094790;28;20479;-77
2023/11/22 04:01:42;;;;;;;24.60;15.23;;;14.80;60.80;;;;;;5092110;28;20475;-77
2023/11/22 04:04:10;;;;;;;27.47;15.70;;;14.80;60.70;;;;;;5087243;28;20464;-77
2023/11/22 04:06:38;;;;;;;27.77;15.50;;;14.70;60.80;;;;;;5094937;28;20964;-78
2023/11/22 04:09:08;;;;;;;27.50;14.97;;;14.70;60.70;;;;;;5081839;28;20461;-77
2023/11/22 04:11:36;;;;;;;24.50;15.23;;;14.70;60.70;;;;;;5086196;28;20500;-77
2023/11/22 04:14:04;;;;;;;28.60;15.80;;;14.70;60.80;;;;;;5094924;28;20441;-78
2023/11/22 04:16:32;;;;;;;26.17;15.43;;;14.70;60.70;;;;;;5094327;28;20474;-78
2023/11/22 04:19:01;;;;;;;28.23;14.73;;;14.70;60.80;;;;;;5095523;28;20471;-78
2023/11/22 04:21:29;;;;;;;26.20;15.37;;;14.70;60.70;;;;;;5093365;28;20472;-78
2023/11/22 04:23:57;;;;;;;28.17;15.07;;;14.60;60.80;;;;;;5087018;28;20529;-78
2023/11/22 04:26:26;;;;;;;23.73;14.07;;;14.60;60.70;;;;;;5094769;28;20437;-78
2023/11/22 04:28:54;;;;;;;21.53;13.77;;;14.60;60.60;;;;;;5091456;28;20445;-78
2023/11/22 04:31:22;;;;;;;24.77;14.27;;;14.60;60.80;;;;;;5093716;28;20497;-78
2023/11/22 04:33:50;;;;;;;23.27;13.70;;;14.70;60.70;;;;;;5104293;28;20433;-78
2023/11/22 04:36:19;;;;;;;20.53;13.20;;;14.70;60.50;;;;;;5095757;28;20437;-78
2023/11/22 04:38:50;;;;;;;22.10;12.60;;;14.60;60.70;;;;;;5095289;28;20506;-78
2023/11/22 04:41:19;;;;;;;21.97;13.27;;;14.60;60.50;;;;;;5085281;28;20500;-78
2023/11/22 04:43:48;;;;;;;23.57;13.40;;;14.60;60.60;;;;;;5087687;28;20429;-78
2023/11/22 04:46:16;;;;;;;20.80;13.23;;;14.60;60.50;;;;;;5094860;28;20432;-78
2023/11/22 04:48:44;;;;;;;22.33;13.13;;;14.60;60.60;;;;;;5082360;28;20441;-78
2023/11/22 04:51:13;;;;;;;20.20;12.00;;;14.60;60.80;;;;;;5093800;28;20461;-78
2023/11/22 04:53:42;;;;;;;19.03;12.00;;;14.60;60.70;;;;;;5081263;28;20457;-78
2023/11/22 04:56:10;;;;;;;17.40;11.37;;;14.50;60.20;;;;;;5092008;28;20421;-78
2023/11/22 04:58:39;;;;;;;21.20;12.90;;;14.50;60.60;;;;;;5096534;28;20456;-78
2023/11/22 05:01:09;;;;;;;17.57;11.77;;;14.50;60.20;;;;;;5095361;28;20457;-79
2023/11/22 05:03:38;;;;;;;18.73;11.33;;;14.50;60.40;;;;;;5091713;28;20456;-78
2023/11/22 05:06:06;;;;;;;19.47;11.57;;;14.50;60.30;;;;;;5094919;28;20437;-78
2023/11/22 05:08:35;;;;;;;18.30;11.60;;;14.50;60.40;;;;;;5095102;28;20451;-78
2023/11/22 05:11:03;;;;;;;20.70;11.43;;;14.50;60.60;;;;;;5085737;28;20436;-77
2023/11/22 05:13:31;;;;;;;16.20;10.17;;;14.50;60.30;;;;;;5089902;28;20428;-77
2023/11/22 05:16:00;;;;;;;16.27;10.43;;;14.50;60.10;;;;;;5093562;28;20445;-78
2023/11/22 05:18:30;;;;;;;18.87;10.60;;;14.50;60.40;;;;;;5092907;28;20555;-77
2023/11/22 05:20:58;;;;;;;18.60;10.57;;;14.40;60.40;;;;;;5091060;28;20923;-76
2023/11/22 05:23:26;;;;;;;16.87;9.93;;;14.40;60.20;;;;;;5085106;28;20488;-76
2023/11/22 05:25:53;;;;;;;15.33;9.63;;;14.40;60.30;;;;;;5093128;28;20472;-77
2023/11/22 05:28:22;;;;;;;17.47;10.13;;;14.40;60.10;;;;;;5092597;28;20515;-77
2023/11/22 05:30:50;;;;;;;15.30;10.00;;;14.40;60.60;;;;;;5087566;28;20515;-77
2023/11/22 05:33:18;;;;;;;13.53;8.90;;;14.30;60.10;;;;;;5092996;28;20520;-76
2023/11/22 05:35:48;;;;;;;16.90;9.93;;;14.40;60.10;;;;;;5093198;28;20455;-77
2023/11/22 05:38:16;;;;;;;15.60;9.20;;;14.30;60.10;;;;;;5091500;28;20460;-76
2023/11/22 05:40:44;;;;;;;22.07;9.20;;;14.30;60.10;;;;;;5087983;28;20452;-76
2023/11/22 05:43:12;;;;;;;12.80;8.73;;;14.30;60.00;;;;;;5093435;28;20465;-77
2023/11/22 05:45:40;;;;;;;14.63;9.03;;;14.30;60.10;;;;;;5088842;28;20458;-77
2023/11/22 05:48:07;;;;;;;13.83;8.90;;;14.30;59.90;;;;;;5092632;28;20524;-77
2023/11/22 05:50:35;;;;;;;13.80;9.43;;;14.30;60.00;;;;;;5092233;28;20437;-76
2023/11/22 05:53:05;;;;;;;12.47;8.27;;;14.30;60.10;;;;;;5092407;28;20503;-77
2023/11/22 05:55:33;;;;;;;12.77;8.07;;;14.30;60.00;;;;;;5084203;28;20445;-77
2023/11/22 05:58:01;;;;;;;14.10;8.27;;;14.30;59.90;;;;;;5120248;22;20551;-78
2023/11/22 06:00:29;;;;;;;10.43;7.60;;;14.30;59.80;;;;;;5096202;28;20580;-77
2023/11/22 06:02:57;;;;;;;11.87;8.10;;;14.30;60.00;;;;;;5106383;28;20505;-77
2023/11/22 06:05:25;;;;;;;11.07;7.60;;;14.20;59.70;;;;;;5078061;28;20457;-78
2023/11/22 06:07:54;;;;;;;12.90;7.83;;;14.20;60.70;;;;;;5093989;28;20461;-77
2023/11/22 06:10:24;;;;;;;10.73;7.77;;;14.20;60.00;;;;;;5093526;28;20511;-78
2023/11/22 06:12:51;;;;;;;9.77;6.90;;;14.30;60.00;;;;;;5092749;28;20456;-77
2023/11/22 06:15:21;;;;;;;10.53;7.57;;;14.20;59.80;;;;;;5091637;28;20445;-77
2023/11/22 06:17:49;;;;;;;10.10;7.40;;;14.20;59.80;;;;;;5091771;28;20449;-78
2023/11/22 06:20:17;;;;;;;9.97;7.10;;;14.20;60.10;;;;;;5090874;28;20479;-76
2023/11/22 06:22:45;;;;;;;9.70;6.63;;;14.20;59.70;;;;;;5092065;28;20491;-77
2023/11/22 06:25:13;;;;;;;10.30;6.97;;;14.20;60.10;;;;;;5088295;28;21059;-78
2023/11/22 06:27:43;;;;;;;10.57;7.10;;;14.20;59.80;;;;;;5096659;28;20483;-79
2023/11/22 06:30:11;;;;;;;11.23;7.03;;;14.20;59.80;;;;;;5095382;28;20436;-77
2023/11/22 06:32:39;;;;;;;11.73;7.57;;;14.20;60.00;;;;;;5078697;28;20437;-77
2023/11/22 06:35:09;;;;;;;10.70;7.27;;;14.20;60.00;;;;;;5091401;28;20472;-77
2023/11/22 06:37:37;;;;;;;10.97;7.20;;;14.20;59.80;;;;;;5080503;28;20456;-76
2023/11/22 06:40:08;;;;;;;7.93;5.90;;;14.20;59.90;;;;;;5081649;28;20465;-77
2023/11/22 06:42:36;;;;;;;9.57;6.40;;;14.20;59.90;;;;;;5075371;28;20444;-76
2023/11/22 06:45:09;;;;;;;9.00;6.00;;;14.20;59.90;;;;;;5090728;28;20502;-78
2023/11/22 06:47:37;;;;;;;8.90;6.07;;;14.20;59.80;;;;;;5083836;28;20518;-77
2023/11/22 06:50:09;;;;;;;8.50;6.03;;;14.20;59.80;;;;;;5084609;28;20472;-76
2023/11/22 06:52:49;;;;;;;8.73;6.30;;;14.20;60.20;;;;;;5080953;28;20442;-78
2023/11/22 06:55:17;;;;;;;8.17;6.20;;;14.20;60.00;;;;;;5079045;28;20468;-76
2023/11/22 06:57:46;;;;;;;9.27;6.70;;;14.20;60.20;;;;;;5076765;28;20481;-76
2023/11/22 07:00:17;;;;;;;7.27;5.80;;;14.20;60.00;;;;;;5089205;28;20476;-76
2023/11/22 07:02:45;;;;;;;10.97;6.60;;;14.20;59.80;;;;;;5080351;28;20639;-76
2023/11/22 07:05:13;;;;;;;8.40;6.30;;;14.20;60.00;;;;;;5086476;28;20440;-76
2023/11/22 07:07:42;;;;;;;7.80;5.80;;;14.20;60.30;;;;;;5082918;28;20452;-75
2023/11/22 07:10:11;;;;;;;6.70;5.80;;;14.20;60.10;;;;;;5089849;28;20437;-76
2023/11/22 07:12:39;;;;;;;7.97;6.20;;;14.20;60.20;;;;;;5082161;28;20449;-76
2023/11/22 07:15:09;;;;;;;8.17;6.00;;;14.30;60.20;;;;;;5090441;28;20449;-76
2023/11/22 07:17:38;;;;;;;8.03;6.20;;;14.20;60.10;;;;;;5090271;28;20547;-76
2023/11/22 07:20:09;;;;;;;9.17;6.10;;;14.20;60.10;;;;;;5090767;28;20476;-75
2023/11/22 07:22:37;;;;;;;8.57;5.70;;;14.30;60.20;;;;;;5086276;28;20473;-76
2023/11/22 07:25:07;;;;;;;6.50;5.40;;;14.20;60.20;;;;;;5092677;28;20444;-77
2023/11/22 07:27:35;;;;;;;8.00;6.00;;;14.20;60.20;;;;;;5081542;28;20471;-77
2023/11/22 07:30:04;;;;;;;7.30;5.20;;;14.30;60.30;;;;;;5082827;28;20440;-78
2023/11/22 07:32:31;;;;;;;8.43;5.80;;;14.30;60.40;;;;;;5089996;28;20445;-76
2023/11/22 07:35:04;;;;;;;8.30;5.93;;;14.30;60.40;;;;;;5085123;28;20456;-77
2023/11/22 07:37:32;;;;;;;8.53;5.43;;;14.30;60.10;;;;;;5089816;28;20461;-77
2023/11/22 07:40:00;;;;;;;6.23;4.90;;;14.30;60.20;;;;;;5072791;28;20468;-76
2023/11/22 07:42:29;;;;;;;8.03;5.27;;;14.30;61.00;;;;;;5085385;28;20449;-77
2023/11/22 07:44:57;;;;;;;7.33;5.13;;;14.30;61.20;;;;;;5083193;28;20448;-76
2023/11/22 07:47:26;;;;;;;6.40;5.57;;;14.30;60.40;;;;;;5071455;28;20530;-76
2023/11/22 07:49:55;;;;;;;6.47;5.23;;;14.40;60.40;;;;;;5089856;28;20475;-77
2023/11/22 07:52:29;;;;;;;5.53;4.77;;;14.30;60.20;;;;;;5091979;28;20444;-76
2023/11/22 07:54:58;;;;;;;6.70;5.30;;;14.30;60.00;;;;;;5081811;28;20452;-78
2023/11/22 07:57:26;;;;;;;7.27;5.10;;;14.30;60.10;;;;;;5083164;28;20488;-78
2023/11/22 07:59:55;;;;;;;6.53;5.37;;;14.40;60.20;;;;;;5092518;28;20468;-78
2023/11/22 08:02:23;;;;;;;5.70;5.10;;;14.30;59.70;;;;;;5095202;28;20445;-77
2023/11/22 08:04:52;;;;;;;6.07;4.90;;;14.30;60.50;;;;;;5091163;28;20499;-78
2023/11/22 08:07:22;;;;;;;6.70;5.40;;;14.40;60.80;;;;;;5089159;28;20473;-78
2023/11/22 08:09:52;;;;;;;8.97;5.50;;;14.40;60.50;;;;;;5095699;28;20444;-78
2023/11/22 08:12:21;;;;;;;5.70;5.10;;;14.40;60.30;;;;;;5091013;28;20456;-77
2023/11/22 08:14:49;;;;;;;7.37;4.97;;;14.40;60.50;;;;;;5094564;28;20441;-77
2023/11/22 08:17:18;;;;;;;5.70;4.70;;;14.50;60.40;;;;;;5089526;28;20453;-78
2023/11/22 08:19:47;;;;;;;7.30;5.47;;;14.50;60.40;;;;;;5095434;28;20413;-77
2023/11/22 08:22:18;;;;;;;6.37;4.80;;;14.50;60.10;;;;;;5087082;28;20426;-77
2023/11/22 08:24:47;;;;;;;7.37;4.40;;;14.50;60.30;;;;;;5095519;28;20544;-78
2023/11/22 08:27:17;;;;;;;5.10;4.00;;;14.50;60.30;;;;;;5084708;28;20495;-77
2023/11/22 08:29:47;;;;;;;5.60;4.53;;;14.50;60.30;;;;;;5085686;28;20498;-78
2023/11/22 08:32:16;;;;;;;6.00;4.90;;;14.50;60.20;;;;;;5095326;28;20463;-77
2023/11/22 08:34:45;;;;;;;5.23;4.53;;;14.50;61.00;;;;;;5084974;28;20450;-78
2023/11/22 08:37:13;;;;;;;6.47;4.70;;;14.50;60.60;;;;;;5088724;28;20460;-77
2023/11/22 08:39:41;;;;;;;5.47;4.60;;;14.60;61.30;;;;;;5084160;28;20444;-78
2023/11/22 08:42:09;;;;;;;8.73;4.63;;;14.60;60.40;;;;;;5093464;28;20534;-77
2023/11/22 08:44:38;;;;;;;5.00;4.30;;;14.60;60.60;;;;;;5094543;28;20444;-78
2023/11/22 08:47:06;;;;;;;5.83;4.23;;;14.60;60.50;;;;;;5083913;28;20469;-77
2023/11/22 08:49:35;;;;;;;5.57;4.23;;;14.60;60.80;;;;;;5092334;28;20441;-77
2023/11/22 08:52:07;;;;;;;5.00;4.23;;;14.60;60.70;;;;;;5089844;28;20511;-78
2023/11/22 08:54:36;;;;;;;5.10;4.50;;;14.60;60.80;;;;;;5096746;28;20464;-78
2023/11/22 08:57:06;;;;;;;4.20;3.80;;;14.60;60.80;;;;;;5084513;28;20480;-79
2023/11/22 08:59:37;;;;;;;5.50;4.17;;;14.70;61.00;;;;;;5091467;28;20530;-79
2023/11/22 09:02:08;;;;;;;6.87;4.23;;;14.70;60.80;;;;;;5089731;28;20503;-79
2023/11/22 09:04:37;;;;;;;4.67;4.27;;;14.70;61.10;;;;;;5091425;28;20472;-78
2023/11/22 09:07:06;;;;;;;5.23;4.70;;;14.70;60.80;;;;;;5095747;28;20534;-78
2023/11/22 09:09:36;;;;;;;4.90;4.10;;;14.80;61.20;;;;;;5094947;28;20446;-78
2023/11/22 09:12:05;;;;;;;6.30;4.67;;;14.80;60.80;;;;;;5099877;28;20470;-79
2023/11/22 09:14:33;;;;;;;5.80;4.20;;;14.80;61.00;;;;;;5096773;28;20486;-78
2023/11/22 09:17:05;;;;;;;4.33;3.93;;;14.80;61.70;;;;;;5084632;28;20995;-77
2023/11/22 09:19:34;;;;;;;4.67;4.10;;;14.80;61.20;;;;;;5092040;28;20536;-78
2023/11/22 09:22:06;;;;;;;4.93;4.43;;;14.90;61.20;;;;;;5093900;28;20527;-79
2023/11/22 09:24:36;;;;;;;4.37;3.97;;;14.90;61.00;;;;;;5093373;28;20471;-78
2023/11/22 09:27:06;;;;;;;6.10;4.40;;;14.90;61.20;;;;;;5093622;28;20495;-77
2023/11/22 09:29:34;;;;;;;5.47;4.57;;;14.90;61.20;;;;;;5097139;28;20440;-78
2023/11/22 09:32:02;;;;;;;4.70;4.20;;;14.90;61.10;;;;;;5100004;28;20444;-77
2023/11/22 09:34:30;;;;;;;5.70;4.40;;;15.00;61.10;;;;;;5097342;28;20449;-78
2023/11/22 09:37:00;;;;;;;5.10;4.60;;;15.00;61.10;;;;;;5090866;28;20466;-79
2023/11/22 09:39:29;;;;;;;6.90;4.43;;;15.00;61.20;;;;;;5091676;28;20441;-78
2023/11/22 09:41:58;;;;;;;5.30;4.50;;;15.00;61.30;;;;;;5072731;28;20519;-78
2023/11/22 09:44:26;;;;;;;5.03;4.53;;;15.10;61.20;;;;;;5072541;28;20449;-78
2023/11/22 09:46:54;;;;;;;4.63;4.13;;;15.00;61.10;;;;;;5071972;28;20469;-78
2023/11/22 09:49:25;;;;;;;3.73;3.43;;;15.10;61.40;;;;;;5072172;28;20457;-78
2023/11/22 09:51:57;;;;;;;4.47;4.07;;;15.10;61.30;;;;;;5073635;28;20453;-77
2023/11/22 09:54:29;;;;;;;4.10;3.57;;;15.20;61.30;;;;;;5079970;28;20440;-78
2023/11/22 09:57:00;;;;;;;5.23;4.00;;;15.20;61.60;;;;;;5071806;28;20480;-78
2023/11/22 09:59:29;;;;;;;4.47;3.97;;;15.20;61.60;;;;;;5072226;28;20446;-78
2023/11/22 10:01:59;;;;;;;5.70;4.50;;;15.20;61.50;;;;;;5072064;28;20477;-78
2023/11/22 10:04:28;;;;;;;4.20;3.80;;;15.20;61.50;;;;;;5072277;28;20434;-77
2023/11/22 10:06:58;;;;;;;6.03;4.07;;;15.30;61.60;;;;;;5083233;28;20475;-77
2023/11/22 10:09:29;;;;;;;4.00;3.60;;;15.30;61.90;;;;;;5084412;28;20503;-78
2023/11/22 10:12:03;;;;;;;4.63;3.90;;;15.30;61.70;;;;;;5072034;28;20452;-78
2023/11/22 10:14:34;;;;;;;4.80;4.03;;;15.30;61.60;;;;;;5070797;28;20450;-78
2023/11/22 10:17:02;;;;;;;3.93;3.50;;;15.30;62.40;;;;;;5075768;28;20466;-78
2023/11/22 10:19:30;;;;;;;4.53;3.87;;;15.30;61.60;;;;;;5088693;28;20859;-77
2023/11/22 10:22:04;;;;;;;5.67;4.37;;;15.30;61.70;;;;;;5079758;28;20469;-78
2023/11/22 10:24:36;;;;;;;4.27;3.40;;;15.40;61.90;;;;;;5087479;28;20468;-77
2023/11/22 10:27:05;;;;;;;4.23;3.73;;;15.40;62.00;;;;;;5089210;28;20469;-78
2023/11/22 10:29:33;;;;;;;5.10;3.67;;;15.40;61.90;;;;;;5091880;28;20449;-78
2023/11/22 10:32:02;;;;;;;5.27;3.80;;;15.40;62.00;;;;;;5083711;28;20441;-78
2023/11/22 10:34:30;;;;;;;3.53;3.23;;;15.40;62.10;;;;;;5091639;28;20470;-78
2023/11/22 10:36:58;;;;;;;4.40;4.00;;;15.40;62.00;;;;;;5091358;28;20469;-77
2023/11/22 10:39:27;;;;;;;4.60;3.63;;;15.40;62.00;;;;;;5091683;28;20452;-77
2023/11/22 10:41:56;;;;;;;4.20;3.80;;;15.40;61.90;;;;;;5078895;28;20474;-78
2023/11/22 10:44:24;;;;;;;4.50;4.10;;;15.50;62.00;;;;;;5075194;28;20450;-77
2023/11/22 10:46:52;;;;;;;4.70;3.70;;;15.60;62.00;;;;;;5080741;28;20472;-77
2023/11/22 10:49:21;;;;;;;4.20;3.67;;;15.60;61.90;;;;;;5076296;28;20496;-77
2023/11/22 10:51:51;;;;;;;4.50;4.10;;;15.60;61.80;;;;;;5087277;28;20494;-77
2023/11/22 10:54:20;;;;;;;3.67;3.37;;;15.70;61.70;;;;;;5085873;28;20437;-77
2023/11/22 10:56:51;;;;;;;4.90;4.03;;;15.80;61.70;;;;;;5092012;28;21014;-78
2023/11/22 10:59:22;;;;;;;4.07;3.77;;;15.80;61.70;;;;;;5083228;28;21077;-75
2023/11/22 11:01:52;;;;;;;4.83;4.20;;;15.90;61.60;;;;;;5082246;28;20991;-75
2023/11/22 11:04:26;;;;;;;4.27;3.87;;;15.90;61.70;;;;;;5091548;28;20448;-75
2023/11/22 11:06:56;;;;;;;7.00;4.13;;;16.00;62.20;;;;;;5086348;28;20484;-75
2023/11/22 11:09:31;;;;;;;4.10;3.77;;;16.10;61.50;;;;;;5091810;28;20456;-75
2023/11/22 11:11:59;;;;;;;4.40;4.00;;;16.10;61.50;;;;;;5089253;28;20465;-75
2023/11/22 11:14:31;;;;;;;4.73;4.30;;;16.20;61.50;;;;;;5084735;28;20635;-76
2023/11/22 11:17:00;;;;;;;4.20;3.70;;;16.40;61.40;;;;;;5088560;28;20468;-76
2023/11/22 11:19:30;;;;;;;4.70;4.30;;;16.50;61.20;;;;;;5077721;28;20454;-76
2023/11/22 11:22:01;;;;;;;8.13;4.17;;;16.60;61.20;;;;;;5082288;28;20480;-76
2023/11/22 11:24:28;;;;;;;3.67;3.37;;;16.70;61.00;;;;;;5079798;28;20511;-75
2023/11/22 11:26:57;;;;;;;4.13;3.70;;;16.90;61.20;;;;;;5093025;28;20994;-75
2023/11/22 11:29:32;;;;;;;4.20;3.80;;;17.10;61.30;;;;;;5094688;28;20440;-75
2023/11/22 11:32:03;;;;;;;4.17;3.80;;;17.20;60.90;;;;;;5093975;28;20483;-75
2023/11/22 11:34:31;;;;;;;4.67;3.70;;;17.30;60.60;;;;;;5084705;28;20455;-76
2023/11/22 11:37:00;;;;;;;4.43;4.03;;;17.30;60.60;;;;;;5086204;28;20461;-76
2023/11/22 11:39:30;;;;;;;4.30;3.90;;;17.40;60.60;;;;;;5094709;28;20444;-76
2023/11/22 11:42:09;;;;;;;4.43;4.03;;;17.40;60.60;;;;;;5088177;28;20525;-76
2023/11/22 11:45:06;;;;;;;4.47;4.07;;;17.60;60.60;;;;;;5088869;28;20451;-75
2023/11/22 11:47:35;;;;;;;4.87;4.47;;;17.70;60.60;;;;;;5087743;28;20466;-77
2023/11/22 11:50:04;;;;;;;4.30;3.90;;;17.90;60.20;;;;;;5085190;28;20450;-77
2023/11/22 11:52:33;;;;;;;5.43;3.97;;;18.00;60.10;;;;;;5090656;28;20441;-78
2023/11/22 11:55:01;;;;;;;4.97;4.17;;;18.20;60.10;;;;;;5078830;28;20477;-77
2023/11/22 11:57:32;;;;;;;3.73;3.40;;;18.20;59.90;;;;;;5092451;28;20488;-78
2023/11/22 12:00:05;;;;;;;4.00;3.70;;;18.30;59.90;;;;;;5090525;28;20959;-77
2023/11/22 12:02:33;;;;;;;4.30;3.90;;;18.50;60.30;;;;;;5086830;28;20488;-78
2023/11/22 12:05:08;;;;;;;4.40;3.70;;;18.80;60.50;;;;;;5092400;28;20429;-78
2023/11/22 12:07:36;;;;;;;4.80;3.77;;;18.90;60.40;;;;;;5088637;28;20563;-79
2023/11/22 12:10:06;;;;;;;4.63;4.10;;;19.10;60.20;;;;;;5093760;28;20454;-79
2023/11/22 12:12:35;;;;;;;3.43;3.13;;;19.20;60.20;;;;;;5089503;28;20451;-78
2023/11/22 12:15:06;;;;;;;4.00;3.00;;;19.30;60.20;;;;;;5092238;28;20448;-78
2023/11/22 12:17:35;;;;;;;3.87;3.30;;;19.20;60.00;;;;;;5090767;28;20484;-77
2023/11/22 12:20:13;;;;;;;4.20;3.20;;;19.10;60.10;;;;;;5097142;28;20436;-78
2023/11/22 12:22:43;;;;;;;3.07;2.87;;;19.00;60.20;;;;;;5088769;28;20468;-77
2023/11/22 12:25:11;;;;;;;3.50;3.20;;;18.90;60.40;;;;;;5081666;28;20441;-77
2023/11/22 12:27:40;;;;;;;3.57;3.27;;;18.70;60.40;;;;;;5080942;28;20468;-77
2023/11/22 12:30:11;;;;;;;3.40;3.10;;;18.70;60.70;;;;;;5090923;28;20486;-79
2023/11/22 12:32:41;;;;;;;4.00;3.70;;;18.40;60.80;;;;;;5082357;28;20538;-79
2023/11/22 12:35:11;;;;;;;4.30;3.90;;;18.30;61.00;;;;;;5092448;28;20441;-79
2023/11/22 12:37:40;;;;;;;4.53;4.13;;;18.20;61.20;;;;;;5093145;28;20472;-78
2023/11/22 12:40:12;;;;;;;4.70;4.30;;;18.00;61.20;;;;;;5089846;28;20446;-78
2023/11/22 12:42:50;;;;;;;4.10;3.80;;;17.90;61.30;;;;;;5086212;28;20469;-79
2023/11/22 12:45:23;;;;;;;5.83;4.43;;;17.90;61.60;;;;;;5084901;28;20449;-78
2023/11/22 12:47:52;;;;;;;6.20;4.37;;;17.80;61.60;;;;;;5077410;28;20955;-79
2023/11/22 12:50:30;;;;;;;5.47;4.80;;;17.70;61.80;;;;;;5083557;28;20449;-79
2023/11/22 12:53:00;;;;;;;6.13;4.50;;;17.60;61.80;;;;;;5090763;28;20443;-79